Time;durP1;ratioP1;P1;durP2;ratioP2;P2;SDS_P1;SDS_P2;PMS_P1;PMS_P2;Temp;Humidity;BMP_temperature;BMP_pressure;BME280_temperature;BME280_humidity;BME280_pressure;Samples;Min_cycle;Max_cycle;Signal;HPM_P1;HPM_P2
2022/05/08 00:01:56;;;;;;;10.85;7.00;;;;;;;11.52;74.97;101249.19;5000377;28;20038;-72
2022/05/08 00:04:21;;;;;;;11.00;6.95;;;;;;;11.53;74.73;101244.81;4999661;28;20038;-73
2022/05/08 00:06:47;;;;;;;12.02;7.85;;;;;;;11.50;75.02;101247.41;5001804;28;20404;-73
2022/05/08 00:09:12;;;;;;;13.45;8.10;;;;;;;11.50;75.22;101250.06;5001220;28;20045;-73
2022/05/08 00:11:37;;;;;;;9.13;6.63;;;;;;;11.44;74.79;101253.59;5002621;28;20042;-72
2022/05/08 00:14:03;;;;;;;9.43;6.03;;;;;;;11.38;76.85;101257.09;5000181;28;20121;-73
2022/05/08 00:16:28;;;;;;;8.52;5.78;;;;;;;11.40;76.26;101250.06;5003264;28;20033;-73
2022/05/08 00:18:54;;;;;;;10.30;6.72;;;;;;;11.43;76.10;101258.88;5000742;28;20045;-73
2022/05/08 00:21:19;;;;;;;9.32;5.95;;;;;;;11.48;75.73;101257.13;4998537;28;20045;-73
2022/05/08 00:23:44;;;;;;;11.32;6.38;;;;;;;11.49;76.18;101253.59;5001695;28;20107;-73
2022/05/08 00:26:10;;;;;;;9.43;6.22;;;;;;;11.40;76.14;101249.19;5000917;28;20409;-73
2022/05/08 00:28:36;;;;;;;9.50;6.40;;;;;;;11.39;76.67;101253.56;5002921;28;20040;-73
2022/05/08 00:31:02;;;;;;;12.55;7.22;;;;;;;11.39;76.30;101252.69;4999585;28;20046;-72
2022/05/08 00:33:28;;;;;;;8.70;6.43;;;;;;;11.36;75.89;101245.63;5002657;28;20026;-73
2022/05/08 00:35:54;;;;;;;15.32;7.07;;;;;;;11.43;75.39;101248.31;5001139;28;20416;-73
2022/05/08 00:38:19;;;;;;;9.55;7.15;;;;;;;11.45;76.32;101226.28;5001293;28;20407;-72
2022/05/08 00:40:44;;;;;;;11.02;7.18;;;;;;;11.47;75.84;101242.13;5002125;28;20488;-72
2022/05/08 00:43:28;;;;;;;10.32;6.72;;;;;;;11.55;75.35;101229.81;5000085;28;20046;-73
2022/05/08 00:45:58;;;;;;;9.90;6.68;;;;;;;11.54;74.55;101226.28;5000469;28;20038;-73
2022/05/08 00:48:23;;;;;;;10.55;6.25;;;;;;;11.61;73.90;101232.47;4999838;28;20034;-73
2022/05/08 00:50:51;;;;;;;10.13;6.75;;;;;;;11.75;74.31;101233.34;5002329;28;20408;-73
2022/05/08 00:53:16;;;;;;;9.73;6.60;;;;;;;11.84;73.70;101229.81;4996097;28;20030;-73
2022/05/08 00:55:42;;;;;;;7.50;5.85;;;;;;;11.93;73.28;101235.16;5000752;28;20440;-73
2022/05/08 00:58:07;;;;;;;10.52;6.50;;;;;;;12.07;72.96;101232.47;5000842;28;20382;-73
2022/05/08 01:00:33;;;;;;;12.25;6.22;;;;;;;12.22;72.38;101231.59;5002363;28;20396;-72
2022/05/08 01:02:59;;;;;;;8.90;5.68;;;;;;;12.38;71.44;101237.75;4999426;28;20039;-73
2022/05/08 01:05:25;;;;;;;9.05;5.93;;;;;;;12.49;71.38;101241.22;5002639;28;20451;-73
2022/05/08 01:07:55;;;;;;;7.95;6.25;;;;;;;12.54;71.21;101239.44;5004151;28;20511;-73
2022/05/08 01:10:21;;;;;;;9.10;5.95;;;;;;;12.56;71.44;101237.69;5004557;28;20042;-73
2022/05/08 01:12:47;;;;;;;7.60;6.38;;;;;;;12.56;72.70;101237.69;5005973;28;20489;-73
2022/05/08 01:15:18;;;;;;;9.20;6.15;;;;;;;12.60;73.04;101238.53;5003317;28;20035;-73
2022/05/08 01:17:44;;;;;;;8.65;6.30;;;;;;;12.56;73.42;101237.69;5005505;28;20038;-73
2022/05/08 01:20:11;;;;;;;7.93;6.15;;;;;;;12.56;72.50;101240.34;5002696;28;20042;-73
2022/05/08 01:22:37;;;;;;;7.25;6.22;;;;;;;12.55;71.90;101238.59;5005134;28;20086;-73
2022/05/08 01:25:03;;;;;;;9.10;6.30;;;;;;;12.58;72.39;101245.63;4995835;28;20088;-73
2022/05/08 01:27:28;;;;;;;7.53;5.57;;;;;;;12.60;72.17;101234.16;5003053;28;20041;-73
2022/05/08 01:29:54;;;;;;;9.77;5.85;;;;;;;12.69;71.56;101236.75;5005842;28;20050;-73
2022/05/08 01:32:19;;;;;;;8.40;5.82;;;;;;;12.74;71.31;101242.03;5003623;28;20042;-72
2022/05/08 01:34:44;;;;;;;6.82;5.75;;;;;;;12.72;71.73;101239.38;5004630;28;20053;-73
2022/05/08 01:37:10;;;;;;;8.73;5.68;;;;;;;12.60;71.96;101242.09;5002510;28;20045;-73
2022/05/08 01:39:35;;;;;;;8.63;6.22;;;;;;;12.62;72.09;101242.06;5002150;28;20042;-73
2022/05/08 01:42:04;;;;;;;8.52;6.13;;;;;;;12.69;71.49;101244.69;5005812;28;20533;-73
2022/05/08 01:44:30;;;;;;;9.13;6.05;;;;;;;12.71;71.81;101256.19;4986161;28;20544;-73
2022/05/08 01:49:57;;;;;;;7.60;5.93;;;;;;;12.78;71.16;101248.19;4984517;28;20046;-73
2022/05/08 01:52:22;;;;;;;6.85;5.55;;;;;;;12.90;70.90;101246.38;5001454;28;20046;-73
2022/05/08 01:54:48;;;;;;;8.40;5.95;;;;;;;13.01;70.13;101241.03;5005665;28;20419;-72
2022/05/08 01:57:13;;;;;;;7.43;5.60;;;;;;;13.00;70.29;101246.34;5003296;28;20035;-73
2022/05/08 01:59:38;;;;;;;8.40;5.90;;;;;;;12.91;71.13;101245.47;5004337;28;20046;-73
2022/05/08 02:02:04;;;;;;;8.02;5.28;;;;;;;13.03;70.70;101254.28;4978924;28;20042;-73
2022/05/08 02:04:29;;;;;;;10.85;6.75;;;;;;;13.01;70.34;101256.06;4985653;28;20037;-73
2022/05/08 02:06:56;;;;;;;7.80;5.60;;;;;;;12.97;70.96;101255.19;5005468;28;20056;-73
2022/05/08 02:09:22;;;;;;;8.38;6.15;;;;;;;12.96;71.98;101253.41;5002422;28;20485;-73
2022/05/08 02:11:47;;;;;;;9.63;6.07;;;;;;;12.86;73.80;101257.00;5004600;28;20129;-73
2022/05/08 02:14:12;;;;;;;10.15;6.38;;;;;;;12.91;73.33;101245.47;5003415;28;20042;-73
2022/05/08 02:16:38;;;;;;;6.60;5.75;;;;;;;12.92;73.76;101252.56;5003642;28;20038;-72
2022/05/08 02:19:03;;;;;;;8.43;5.97;;;;;;;12.98;73.20;101246.34;5000886;28;20048;-73
2022/05/08 02:21:28;;;;;;;8.88;5.80;;;;;;;13.05;72.54;101253.41;4999319;28;20061;-73
2022/05/08 02:23:53;;;;;;;10.73;6.95;;;;;;;12.97;72.63;101264.91;5005313;28;20042;-73
2022/05/08 02:26:19;;;;;;;9.65;5.72;;;;;;;12.96;72.57;101269.31;5002346;28;20069;-73
2022/05/08 02:28:44;;;;;;;8.18;6.75;;;;;;;12.95;73.01;101264.91;5004322;28;20173;-73
2022/05/08 02:31:10;;;;;;;8.20;6.30;;;;;;;12.86;72.58;101268.50;4978143;28;20038;-73
2022/05/08 02:33:35;;;;;;;9.68;5.70;;;;;;;12.89;73.17;101267.56;5003191;28;20040;-73
2022/05/08 02:36:00;;;;;;;7.97;6.32;;;;;;;12.93;72.41;101270.22;5000045;28;20140;-73
2022/05/08 02:38:26;;;;;;;7.43;5.72;;;;;;;12.94;72.27;101273.72;5002725;28;20151;-72
2022/05/08 02:40:51;;;;;;;7.03;6.13;;;;;;;13.02;71.49;101274.63;5001558;28;20049;-73
2022/05/08 02:43:20;;;;;;;8.38;5.57;;;;;;;13.09;71.01;101264.84;5004240;28;20041;-73
2022/05/08 02:45:46;;;;;;;7.18;5.53;;;;;;;13.12;70.60;101265.69;5003248;28;20030;-73
2022/05/08 02:48:12;;;;;;;6.75;5.65;;;;;;;13.05;70.99;101261.34;5002537;28;20452;-73
2022/05/08 02:50:37;;;;;;;7.60;5.68;;;;;;;12.94;72.06;101260.50;5004272;28;20048;-73
2022/05/08 02:53:03;;;;;;;7.82;5.60;;;;;;;12.98;71.86;101256.94;5001291;28;20113;-73
2022/05/08 03:00:55;;;;;;;6.95;5.35;;;;;;;13.03;71.28;101254.28;5002187;28;20446;-73
2022/05/08 03:03:21;;;;;;;7.22;5.65;;;;;;;13.05;71.75;101257.81;5001483;28;20035;-73
2022/05/08 03:05:47;;;;;;;8.07;5.07;;;;;;;13.11;71.13;101257.78;5004430;28;20053;-73
2022/05/08 03:08:15;;;;;;;6.82;5.32;;;;;;;13.18;70.97;101258.59;5000696;28;20042;-73
2022/05/08 03:13:35;;;;;;;6.43;4.95;;;;;;;13.31;70.36;101261.25;4999728;28;20061;-73
2022/05/08 03:16:01;;;;;;;7.55;4.93;;;;;;;13.33;70.15;101269.16;5001693;28;20066;-73
2022/05/08 03:18:26;;;;;;;8.15;5.75;;;;;;;13.30;70.21;101263.88;5004272;28;20038;-73
2022/05/08 03:20:52;;;;;;;6.78;5.63;;;;;;;13.29;69.87;101262.13;5000924;28;20034;-73
2022/05/08 03:23:17;;;;;;;8.45;5.50;;;;;;;13.20;70.18;101265.66;5003341;28;20045;-73
2022/05/08 03:25:43;;;;;;;7.60;5.75;;;;;;;13.03;70.47;101270.19;5002234;28;20030;-73
2022/05/08 03:28:08;;;;;;;7.45;6.07;;;;;;;12.96;71.08;101269.31;5002147;28;20485;-73
2022/05/08 03:30:33;;;;;;;8.68;5.53;;;;;;;12.93;71.22;101274.63;5002480;28;20030;-73
2022/05/08 03:32:59;;;;;;;9.93;7.28;;;;;;;12.83;72.06;101272.91;4999353;28;20540;-73
2022/05/08 03:35:24;;;;;;;7.78;6.22;;;;;;;12.57;73.82;101289.75;4996929;28;20072;-73
2022/05/08 03:37:50;;;;;;;9.32;6.80;;;;;;;12.42;73.58;101282.75;5000057;28;20040;-73
2022/05/08 03:40:15;;;;;;;8.63;6.20;;;;;;;12.34;74.30;101281.88;5001679;28;20113;-73
2022/05/08 03:42:43;;;;;;;7.40;5.30;;;;;;;12.34;74.71;101284.53;5001817;28;20034;-73
2022/05/08 03:45:09;;;;;;;7.20;5.57;;;;;;;12.22;74.79;101285.41;4998850;28;20026;-73
2022/05/08 03:47:34;;;;;;;7.40;6.18;;;;;;;12.19;74.13;101290.69;5000382;28;20116;-73
2022/05/08 03:50:00;;;;;;;8.05;6.03;;;;;;;12.17;74.75;101294.22;5003695;28;20041;-73
2022/05/08 03:52:25;;;;;;;7.05;5.40;;;;;;;12.13;75.34;101295.09;5000690;28;20409;-73
2022/05/08 03:54:50;;;;;;;7.53;6.13;;;;;;;12.10;75.49;101295.97;5002554;28;20120;-72
2022/05/08 03:57:15;;;;;;;6.93;5.40;;;;;;;12.10;75.24;101295.97;4976951;28;20038;-73
2022/05/08 03:59:41;;;;;;;7.20;5.35;;;;;;;12.12;75.63;101303.94;4983849;28;20081;-73
2022/05/08 04:02:06;;;;;;;8.45;6.10;;;;;;;12.14;75.84;101308.34;5002714;28;20049;-73
2022/05/08 04:04:31;;;;;;;8.90;6.40;;;;;;;12.14;76.63;101307.47;5000203;28;20046;-73
2022/05/08 04:06:57;;;;;;;7.10;6.28;;;;;;;12.16;76.09;101301.28;5002057;28;20038;-73
2022/05/08 04:09:22;;;;;;;9.30;6.72;;;;;;;12.23;76.30;101310.09;5000831;28;20045;-73
2022/05/08 04:11:47;;;;;;;9.93;6.40;;;;;;;12.33;76.30;101313.63;5001987;28;20083;-73
2022/05/08 04:14:13;;;;;;;7.43;6.07;;;;;;;12.41;75.34;101307.44;4998688;28;20508;-73
2022/05/08 04:16:38;;;;;;;9.35;6.68;;;;;;;12.49;75.33;101312.72;4983677;28;20034;-73
2022/05/08 04:19:06;;;;;;;10.40;6.65;;;;;;;12.53;75.29;101311.84;5002996;28;20121;-73
2022/05/08 04:21:32;;;;;;;7.88;6.30;;;;;;;12.59;74.63;101310.94;4996212;28;20056;-73
2022/05/08 04:26:41;;;;;;;9.80;7.07;;;;;;;12.74;74.49;101310.03;5003224;28;20054;-73
2022/05/08 04:29:07;;;;;;;8.25;6.50;;;;;;;12.78;74.56;101309.13;5000618;28;20041;-73
2022/05/08 04:31:33;;;;;;;9.60;6.88;;;;;;;12.81;74.33;101314.41;5001819;28;20038;-73
2022/05/08 04:33:58;;;;;;;8.43;6.95;;;;;;;12.87;74.82;101311.75;5001687;28;20030;-73
2022/05/08 04:36:23;;;;;;;8.07;6.28;;;;;;;12.91;74.61;101318.78;4998568;28;20049;-73
2022/05/08 04:38:49;;;;;;;7.50;5.88;;;;;;;12.97;74.74;101318.78;5002829;28;20459;-73
2022/05/08 04:41:14;;;;;;;8.30;6.47;;;;;;;13.08;73.97;101322.28;5001604;28;20620;-73
2022/05/08 04:43:40;;;;;;;9.20;6.40;;;;;;;13.24;73.54;101327.53;5006884;28;20401;-73
2022/05/08 04:46:05;;;;;;;7.03;6.10;;;;;;;13.34;72.98;101324.84;5004751;28;20408;-73
2022/05/08 04:48:30;;;;;;;8.63;6.88;;;;;;;13.39;73.47;101338.09;5005651;28;20128;-73
2022/05/08 04:50:56;;;;;;;9.65;6.72;;;;;;;13.49;72.57;101341.56;5005356;28;20181;-73
2022/05/08 04:53:21;;;;;;;12.27;6.85;;;;;;;13.50;72.72;101348.63;5004512;28;20033;-73
2022/05/08 04:55:47;;;;;;;9.50;7.20;;;;;;;13.55;72.44;101350.38;4998813;28;20042;-73
2022/05/08 04:58:12;;;;;;;8.38;6.70;;;;;;;13.46;73.32;101350.41;5006796;28;20042;-73
2022/05/08 05:00:37;;;;;;;10.38;7.55;;;;;;;13.48;73.53;101353.06;5004013;28;20420;-73
2022/05/08 05:03:03;;;;;;;9.45;7.40;;;;;;;13.53;73.19;101354.78;5005475;28;20180;-73
2022/05/08 05:05:29;;;;;;;9.35;7.18;;;;;;;13.57;73.47;101353.91;5005303;28;20034;-73
2022/05/08 05:07:54;;;;;;;11.15;7.75;;;;;;;13.68;73.26;101355.63;5003330;28;20037;-73
2022/05/08 05:10:19;;;;;;;9.38;7.82;;;;;;;13.75;73.32;101355.56;5003810;28;20541;-73
2022/05/08 05:12:45;;;;;;;9.32;7.63;;;;;;;13.73;73.68;101360.00;4961388;28;20038;-73
2022/05/08 05:15:11;;;;;;;9.90;8.43;;;;;;;13.71;74.02;101366.22;5006395;28;20043;-73
2022/05/08 05:17:36;;;;;;;9.70;7.43;;;;;;;13.57;74.85;101363.59;5004106;28;20041;-73
2022/05/08 05:20:07;;;;;;;11.23;8.60;;;;;;;13.60;74.41;101376.88;5003095;28;20035;-73
2022/05/08 05:22:32;;;;;;;9.05;7.43;;;;;;;13.67;74.25;101375.94;5003360;28;20070;-73
2022/05/08 05:24:58;;;;;;;11.98;8.57;;;;;;;13.78;74.21;101378.53;5006311;28;20115;-73
2022/05/08 05:27:25;;;;;;;11.73;9.00;;;;;;;13.78;74.43;101383.81;5003264;28;20042;-73
2022/05/08 05:29:51;;;;;;;9.50;7.88;;;;;;;13.81;74.23;101383.84;5005389;28;20073;-73
2022/05/08 05:32:16;;;;;;;9.90;7.70;;;;;;;13.75;74.59;101389.16;5004220;28;20035;-73
2022/05/08 05:34:42;;;;;;;10.70;7.85;;;;;;;13.85;74.54;101385.56;5004161;28;20121;-73
2022/05/08 05:37:07;;;;;;;9.32;7.78;;;;;;;14.05;73.57;101395.19;5002369;28;20093;-73
2022/05/08 05:39:34;;;;;;;10.15;8.15;;;;;;;14.18;73.24;101394.22;5006060;28;20042;-73
2022/05/08 05:41:59;;;;;;;8.52;7.32;;;;;;;14.31;72.26;101390.56;4993857;28;20026;-73
2022/05/08 05:44:26;;;;;;;9.25;7.82;;;;;;;14.40;71.96;101390.47;5005338;28;20045;-73
2022/05/08 05:49:38;;;;;;;9.30;7.90;;;;;;;14.56;71.81;101387.72;5000925;28;20038;-73
2022/05/08 05:52:05;;;;;;;10.02;7.30;;;;;;;14.68;71.25;101388.50;5002831;28;20417;-73
2022/05/08 05:54:31;;;;;;;9.38;7.10;;;;;;;14.81;70.68;101381.28;4980167;28;20044;-73
2022/05/08 05:56:56;;;;;;;8.70;7.47;;;;;;;14.80;70.14;101394.59;5002614;28;20042;-72
2022/05/08 05:59:22;;;;;;;11.00;7.80;;;;;;;14.92;70.19;101394.47;5005842;28;20038;-73
2022/05/08 06:01:48;;;;;;;9.50;7.72;;;;;;;15.04;69.50;101396.13;5001489;28;20049;-73
2022/05/08 06:04:13;;;;;;;8.27;6.85;;;;;;;15.16;69.56;101401.28;5001961;28;20041;-73
2022/05/08 06:06:39;;;;;;;9.73;7.22;;;;;;;15.30;68.86;101404.69;5004211;28;20042;-73
2022/05/08 06:09:04;;;;;;;9.95;8.07;;;;;;;15.43;68.40;101412.50;5003219;28;20096;-73
2022/05/08 06:11:29;;;;;;;8.90;6.65;;;;;;;15.42;68.03;101411.63;5005059;28;20065;-73
2022/05/08 06:13:55;;;;;;;8.07;7.10;;;;;;;15.48;67.89;101416.00;5002223;28;20022;-73
2022/05/08 06:16:20;;;;;;;8.43;7.25;;;;;;;15.60;67.43;101421.16;5005204;28;20503;-72
2022/05/08 06:18:45;;;;;;;9.10;7.45;;;;;;;15.49;67.40;101421.31;5003112;28;20100;-73
2022/05/08 06:21:11;;;;;;;9.38;6.47;;;;;;;15.49;67.69;101425.75;5003568;28;20038;-73
2022/05/08 06:23:36;;;;;;;11.05;7.00;;;;;;;15.58;67.52;101425.63;5004133;28;20041;-73
2022/05/08 06:26:03;;;;;;;7.18;6.20;;;;;;;15.81;67.07;101428.03;5002706;28;20477;-73
2022/05/08 06:28:29;;;;;;;9.68;7.22;;;;;;;15.87;66.45;101432.38;5005287;28;20496;-73
2022/05/08 06:30:55;;;;;;;8.18;6.53;;;;;;;15.89;66.10;101433.25;5001926;28;20093;-73
2022/05/08 06:33:20;;;;;;;7.35;5.90;;;;;;;16.01;65.43;101433.09;5000913;28;20042;-73
2022/05/08 06:35:45;;;;;;;8.00;6.28;;;;;;;15.94;65.57;101434.06;5003239;28;20042;-73
2022/05/08 06:38:10;;;;;;;8.10;5.90;;;;;;;16.07;65.69;101435.66;5003088;28;20046;-73
2022/05/08 06:40:40;;;;;;;7.85;5.57;;;;;;;16.25;64.49;101438.94;5004259;28;20041;-73
2022/05/08 06:43:09;;;;;;;8.60;6.90;;;;;;;16.04;64.67;101443.69;5001212;28;20042;-73
2022/05/08 06:45:35;;;;;;;9.25;6.35;;;;;;;16.04;64.92;101445.47;5003838;28;20045;-72
2022/05/08 06:48:04;;;;;;;7.75;6.47;;;;;;;16.12;64.75;101440.91;5003521;28;20076;-73
2022/05/08 06:50:30;;;;;;;9.23;6.20;;;;;;;15.96;64.83;101445.56;4984500;28;20696;-73
2022/05/08 06:52:55;;;;;;;10.50;6.82;;;;;;;16.00;64.62;101441.94;5004592;28;20022;-73
2022/05/08 06:55:21;;;;;;;9.45;6.38;;;;;;;16.01;64.80;101441.06;5001669;28;20405;-73
2022/05/08 06:57:46;;;;;;;7.18;5.70;;;;;;;16.12;64.93;101447.13;5003915;28;20038;-73
2022/05/08 07:02:56;;;;;;;7.72;5.68;;;;;;;16.34;64.08;101449.44;4997245;28;20077;-73
2022/05/08 07:05:21;;;;;;;9.55;7.00;;;;;;;16.15;64.33;101446.19;5001497;28;20062;-73
2022/05/08 07:07:47;;;;;;;9.35;6.32;;;;;;;16.03;64.42;101454.34;5002709;28;20080;-73
2022/05/08 07:10:12;;;;;;;8.13;6.00;;;;;;;15.87;65.28;101451.00;4994714;28;20034;-73
2022/05/08 07:12:37;;;;;;;7.78;6.25;;;;;;;15.75;65.51;101454.72;5003854;28;20041;-73
2022/05/08 07:15:04;;;;;;;8.25;7.45;;;;;;;15.71;65.99;101455.66;5000935;28;20034;-73
2022/05/08 07:17:29;;;;;;;13.02;6.40;;;;;;;15.72;65.95;101453.00;5003896;28;20168;-73
2022/05/08 07:19:56;;;;;;;9.23;6.15;;;;;;;15.84;65.55;101461.69;5002060;28;20511;-73
2022/05/08 07:22:24;;;;;;;7.78;6.20;;;;;;;15.68;65.40;101467.19;5002205;28;20044;-73
2022/05/08 07:24:49;;;;;;;6.85;5.20;;;;;;;15.74;65.63;101456.47;5003592;28;20045;-73
2022/05/08 07:27:15;;;;;;;8.45;5.72;;;;;;;15.88;64.00;101452.78;5002086;28;20045;-73
2022/05/08 07:29:41;;;;;;;7.70;6.03;;;;;;;15.77;64.55;101463.56;4997120;28;20038;-73
2022/05/08 07:32:06;;;;;;;8.23;5.30;;;;;;;15.77;64.83;101469.78;4984000;28;20321;-73
2022/05/08 07:37:19;;;;;;;7.65;4.93;;;;;;;15.88;64.05;101471.44;4999216;28;20057;-73
2022/05/08 07:39:45;;;;;;;5.75;5.07;;;;;;;15.88;64.19;101469.63;5002461;28;20034;-73
2022/05/08 07:42:10;;;;;;;7.68;4.70;;;;;;;16.21;63.73;101468.25;5002501;28;20104;-73
2022/05/08 07:44:35;;;;;;;6.65;4.35;;;;;;;16.44;62.31;101469.72;5000994;28;20096;-73
2022/05/08 07:47:01;;;;;;;6.70;4.68;;;;;;;16.55;61.52;101473.09;5003793;28;20077;-73
2022/05/08 07:49:27;;;;;;;8.32;4.97;;;;;;;16.56;60.85;101468.66;5000732;28;20034;-73
2022/05/08 07:51:52;;;;;;;5.47;4.25;;;;;;;16.61;61.08;101483.66;5002557;28;20042;-73
2022/05/08 07:54:18;;;;;;;8.43;4.68;;;;;;;16.89;60.52;101477.03;5001902;28;20041;-73
2022/05/08 07:56:45;;;;;;;7.43;4.55;;;;;;;16.91;59.28;101480.56;5001700;28;20037;-73
2022/05/08 07:59:13;;;;;;;6.90;4.70;;;;;;;16.82;59.87;101486.91;5001811;28;20381;-73
2022/05/08 08:01:40;;;;;;;7.45;4.18;;;;;;;16.70;60.84;101492.41;4998759;28;20496;-73
2022/05/08 08:04:06;;;;;;;7.15;5.00;;;;;;;16.53;60.58;101485.59;4999732;28;20045;-73
2022/05/08 08:06:32;;;;;;;6.80;4.75;;;;;;;16.61;60.37;101497.00;5001676;28;20039;-73
2022/05/08 08:08:58;;;;;;;8.07;4.50;;;;;;;16.89;60.08;101493.91;5001477;28;20072;-73
2022/05/08 08:11:23;;;;;;;5.70;3.92;;;;;;;17.00;59.80;101489.28;5002579;28;20077;-73
2022/05/08 08:13:49;;;;;;;7.78;4.43;;;;;;;17.19;58.96;101492.50;4982707;28;20081;-73
2022/05/08 08:16:15;;;;;;;6.57;3.90;;;;;;;17.04;59.22;101495.44;4996176;28;20467;-73
2022/05/08 08:18:42;;;;;;;6.85;3.95;;;;;;;17.32;59.54;101495.81;5002756;28;20496;-73
2022/05/08 08:21:12;;;;;;;6.30;3.70;;;;;;;17.68;58.56;101498.66;5001345;28;20117;-73
2022/05/08 08:23:40;;;;;;;5.95;3.75;;;;;;;17.98;57.37;101494.50;5000567;28;20491;-73
2022/05/08 08:26:05;;;;;;;8.00;4.00;;;;;;;17.85;57.39;101493.91;5003292;28;20706;-73
2022/05/08 08:28:30;;;;;;;6.00;3.60;;;;;;;17.88;57.26;101496.50;5000342;28;20083;-73
2022/05/08 08:30:56;;;;;;;5.30;3.72;;;;;;;18.09;56.41;101499.63;5002050;28;20038;-73
2022/05/08 08:33:22;;;;;;;6.55;4.25;;;;;;;18.15;56.50;101500.34;4999417;28;20065;-73
2022/05/08 08:35:49;;;;;;;7.32;4.60;;;;;;;18.43;56.06;101497.06;5002748;28;20026;-73
2022/05/08 08:38:15;;;;;;;5.25;4.13;;;;;;;18.83;55.34;101499.66;5000123;28;20042;-73
2022/05/08 08:40:42;;;;;;;7.47;4.00;;;;;;;19.30;54.59;101503.84;5003087;28;20049;-73
2022/05/08 08:43:11;;;;;;;5.07;3.58;;;;;;;19.60;52.95;101494.97;5000114;28;20125;-73
2022/05/08 08:48:33;;;;;;;6.00;3.85;;;;;;;19.92;52.38;101506.59;4994607;28;20034;-73
2022/05/08 08:51:01;;;;;;;6.05;4.50;;;;;;;19.61;51.95;101502.06;4999448;28;20049;-73
2022/05/08 08:53:27;;;;;;;5.20;3.80;;;;;;;19.63;52.67;101505.59;5002615;28;20034;-73
2022/05/08 08:55:54;;;;;;;5.75;3.83;;;;;;;19.80;52.59;101512.28;5000893;28;20045;-73
2022/05/08 08:58:20;;;;;;;6.15;3.90;;;;;;;20.10;51.45;101507.84;5001171;28;20046;-73
2022/05/08 09:00:47;;;;;;;5.18;3.65;;;;;;;20.24;51.56;101510.09;5002277;28;20034;-73
2022/05/08 09:03:25;;;;;;;5.78;3.60;;;;;;;20.40;50.86;101508.69;4999180;28;20039;-73
2022/05/08 09:05:53;;;;;;;6.78;4.30;;;;;;;20.32;50.82;101508.91;5001207;28;20092;-73
2022/05/08 09:08:28;;;;;;;5.82;3.92;;;;;;;20.11;50.56;101506.91;5002285;28;20135;-73
2022/05/08 09:10:54;;;;;;;6.00;3.63;;;;;;;20.30;50.97;101516.16;4993593;28;20729;-73
2022/05/08 09:13:19;;;;;;;6.53;4.07;;;;;;;20.33;51.06;101510.69;5001225;28;20038;-73
2022/05/08 09:15:45;;;;;;;6.07;4.03;;;;;;;20.58;50.85;101508.13;4976681;28;20084;-73
2022/05/08 09:18:12;;;;;;;7.53;3.92;;;;;;;21.04;50.07;101505.75;5000073;28;20030;-73
2022/05/08 09:20:40;;;;;;;5.90;3.45;;;;;;;21.53;48.91;101501.31;5002795;28;20034;-73
2022/05/08 09:23:10;;;;;;;6.22;3.88;;;;;;;21.89;47.99;101498.22;4999777;28;20038;-73
2022/05/08 09:25:44;;;;;;;6.72;3.58;;;;;;;21.88;47.71;101500.03;4983640;28;20049;-73
2022/05/08 09:28:11;;;;;;;5.10;3.22;;;;;;;21.96;47.80;101501.56;5004491;28;20382;-73
2022/05/08 09:30:53;;;;;;;5.75;3.58;;;;;;;22.01;47.25;101502.25;5003446;28;20034;-72
2022/05/08 09:33:26;;;;;;;5.72;3.33;;;;;;;22.02;47.59;101498.63;4998496;28;20041;-73
2022/05/08 09:35:52;;;;;;;4.75;3.17;;;;;;;22.07;46.72;101504.72;5004183;28;20128;-73
2022/05/08 09:38:17;;;;;;;6.97;3.75;;;;;;;21.95;47.09;101510.53;4986951;28;20065;-73
2022/05/08 09:40:45;;;;;;;4.78;3.15;;;;;;;21.92;46.99;101510.66;5003937;28;20432;-73
2022/05/08 09:43:28;;;;;;;5.07;3.13;;;;;;;22.14;45.75;101506.22;5002577;28;20050;-73
2022/05/08 09:45:58;;;;;;;5.93;3.42;;;;;;;22.23;46.09;101505.88;5002366;28;20117;-73
2022/05/08 09:48:26;;;;;;;5.38;3.13;;;;;;;22.73;45.32;101500.28;5002683;28;20047;-73
2022/05/08 09:50:58;;;;;;;5.95;3.53;;;;;;;23.18;44.03;101495.72;5005079;28;20041;-73
2022/05/08 09:53:25;;;;;;;5.60;3.40;;;;;;;23.31;43.68;101496.94;5004849;28;20045;-73
2022/05/08 09:55:57;;;;;;;4.75;3.05;;;;;;;23.30;43.38;101500.56;5003098;28;20473;-73
2022/05/08 09:58:24;;;;;;;5.68;3.30;;;;;;;23.34;42.46;101501.31;5000051;28;20053;-73
2022/05/08 10:00:54;;;;;;;4.05;2.90;;;;;;;22.76;43.16;101500.13;5004456;28;20427;-73
2022/05/08 10:03:20;;;;;;;6.10;3.28;;;;;;;22.57;44.28;101492.91;5005031;28;20048;-73
2022/05/08 10:05:47;;;;;;;4.82;2.67;;;;;;;22.86;44.03;101491.69;5002522;28;20022;-74
2022/05/08 10:08:18;;;;;;;4.28;2.28;;;;;;;23.04;43.35;101493.63;5005389;28;20108;-73
2022/05/08 10:14:00;;;;;;;4.97;2.35;;;;;;;23.10;42.48;101485.28;5002008;28;20038;-73
2022/05/08 10:17:02;;;;;;;4.43;2.65;;;;;;;23.03;42.72;101491.91;5002691;28;20045;-73
2022/05/08 10:19:27;;;;;;;4.15;2.42;;;;;;;22.82;43.33;101484.69;5005438;28;20038;-73
2022/05/08 10:21:53;;;;;;;3.75;2.38;;;;;;;22.84;43.21;101490.88;5002395;28;20564;-73
2022/05/08 10:24:39;;;;;;;4.55;2.05;;;;;;;22.99;42.80;101486.69;5004284;28;20077;-74
2022/05/08 10:27:24;;;;;;;6.35;2.90;;;;;;;22.44;41.89;101492.53;4999633;28;20042;-73
2022/05/08 10:29:49;;;;;;;4.75;2.45;;;;;;;22.19;43.53;101485.44;4989718;28;20046;-73
2022/05/08 10:32:33;;;;;;;4.68;2.78;;;;;;;22.04;43.21;101476.13;5004282;28;20044;-73
2022/05/08 10:35:18;;;;;;;6.10;2.42;;;;;;;22.04;43.46;101483.31;5005234;28;20037;-73
2022/05/08 10:38:00;;;;;;;4.75;2.50;;;;;;;22.23;43.58;101479.00;5005009;28;20038;-73
2022/05/08 10:40:28;;;;;;;7.78;3.90;;;;;;;22.27;42.88;101479.78;4999631;28;20034;-73
2022/05/08 10:42:57;;;;;;;4.18;2.70;;;;;;;22.37;43.08;101480.25;5004382;28;20038;-73
2022/05/08 10:45:32;;;;;;;4.32;2.58;;;;;;;22.77;42.10;101479.50;4998660;28;20249;-73
2022/05/08 10:48:07;;;;;;;5.28;3.05;;;;;;;22.96;42.39;101479.59;5002806;28;20033;-73
2022/05/08 10:50:34;;;;;;;5.53;2.88;;;;;;;23.04;41.75;101480.16;4998376;28;20585;-73
2022/05/08 10:52:59;;;;;;;5.68;3.47;;;;;;;23.22;40.66;101477.63;5003607;28;20073;-74
2022/05/08 10:55:26;;;;;;;6.15;2.78;;;;;;;23.25;41.48;101474.78;5003074;28;20093;-73
2022/05/08 10:57:53;;;;;;;5.25;2.80;;;;;;;22.98;41.31;101477.75;5002512;28;20046;-73
2022/05/08 11:00:23;;;;;;;3.75;2.42;;;;;;;22.91;42.26;101468.16;5004439;28;20122;-73
2022/05/08 11:02:57;;;;;;;4.57;2.50;;;;;;;22.89;42.39;101475.41;4998359;28;20089;-73
2022/05/08 11:05:31;;;;;;;4.45;2.35;;;;;;;22.80;42.54;101470.44;5002112;28;20519;-73
2022/05/08 11:08:08;;;;;;;4.82;2.50;;;;;;;22.45;42.42;101478.13;4997893;28;20038;-73
2022/05/08 11:10:41;;;;;;;5.50;2.70;;;;;;;22.01;43.60;101472.69;4998222;28;20034;-73
2022/05/08 11:13:10;;;;;;;5.20;3.10;;;;;;;21.64;44.19;101472.28;4997493;28;20038;-73
2022/05/08 11:15:45;;;;;;;4.45;2.95;;;;;;;21.53;44.37;101478.97;5003204;28;20061;-73
2022/05/08 11:18:20;;;;;;;5.60;3.13;;;;;;;21.73;43.66;101479.13;5004222;28;20072;-73
2022/05/08 11:20:57;;;;;;;6.40;3.10;;;;;;;21.83;43.81;101477.84;4999505;28;20064;-73
2022/05/08 11:23:25;;;;;;;6.22;2.60;;;;;;;21.86;45.14;101469.66;5000855;28;20049;-73
2022/05/08 11:25:52;;;;;;;4.60;2.67;;;;;;;21.82;44.48;101473.41;5003996;28;20507;-73
2022/05/08 11:28:21;;;;;;;5.43;3.25;;;;;;;21.64;44.98;101474.06;5002250;28;20052;-73
2022/05/08 11:30:48;;;;;;;4.95;2.92;;;;;;;21.56;44.77;101476.16;5001755;28;20038;-73
2022/05/08 11:36:04;;;;;;;5.88;2.70;;;;;;;21.75;44.98;101474.56;5002118;28;20551;-73
2022/05/08 11:38:50;;;;;;;4.50;3.00;;;;;;;21.86;45.22;101472.34;5000723;28;20033;-73
2022/05/08 11:41:26;;;;;;;5.28;3.00;;;;;;;22.28;43.98;101465.38;4999501;28;20050;-73
2022/05/08 11:43:56;;;;;;;5.55;3.50;;;;;;;22.58;43.08;101471.31;5002303;28;20686;-73
2022/05/08 11:46:36;;;;;;;5.15;3.53;;;;;;;23.38;41.69;101462.53;5003367;28;20041;-73
2022/05/08 11:49:14;;;;;;;5.82;3.13;;;;;;;24.06;40.36;101463.00;5000107;28;20514;-73
2022/05/08 11:51:41;;;;;;;5.22;3.50;;;;;;;24.12;38.63;101461.84;4999528;28;20481;-73
2022/05/08 11:54:17;;;;;;;4.78;3.03;;;;;;;24.08;38.67;101461.13;4985631;28;20037;-73
2022/05/08 11:56:42;;;;;;;5.25;3.40;;;;;;;23.70;39.74;101449.41;4990870;28;20509;-73